createdAt,value
2018-05-31T00:02:31.843Z,5.90
2018-05-31T00:07:35.091Z,5.97
2018-05-31T00:12:38.350Z,5.13
2018-05-31T00:17:42.368Z,5.17
2018-05-31T00:22:45.607Z,5.60
2018-05-31T00:27:48.870Z,5.37
2018-05-31T00:32:52.123Z,5.30
2018-05-31T00:37:55.374Z,5.20
2018-05-31T00:42:58.615Z,5.27
2018-05-31T00:48:02.632Z,5.67
2018-05-31T00:53:05.875Z,6.30
2018-05-31T00:58:09.129Z,6.60
2018-05-31T01:03:13.636Z,5.60
2018-05-31T01:08:17.114Z,6.27
2018-05-31T01:13:20.387Z,8.40
2018-05-31T01:18:23.636Z,7.20
2018-05-31T01:23:27.655Z,8.30
2018-05-31T01:28:30.900Z,6.17
2018-05-31T01:33:34.151Z,9.77
2018-05-31T01:38:37.405Z,6.67
2018-05-31T01:43:40.646Z,8.13
2018-05-31T01:48:43.995Z,9.40
2018-05-31T01:53:47.272Z,9.40
2018-05-31T01:58:50.492Z,10.80
2018-05-31T02:03:54.515Z,7.07
2018-05-31T02:08:57.763Z,7.13
2018-05-31T02:14:01.124Z,6.33
2018-05-31T02:19:04.370Z,6.00
2018-05-31T02:24:08.385Z,6.40
2018-05-31T02:29:11.631Z,6.17
2018-05-31T02:34:14.955Z,5.97
2018-05-31T02:39:18.203Z,6.07
2018-05-31T02:44:21.465Z,6.67
2018-05-31T02:49:24.717Z,5.93
2018-05-31T02:54:27.954Z,5.97
2018-05-31T02:59:32.094Z,6.33
2018-05-31T03:04:35.347Z,6.23
2018-05-31T03:09:38.591Z,6.93
2018-05-31T03:14:41.851Z,6.37
2018-05-31T03:19:45.104Z,9.57
2018-05-31T03:24:49.123Z,9.60
2018-05-31T03:29:52.376Z,10.83
2018-05-31T03:34:55.657Z,11.50
2018-05-31T03:39:58.924Z,11.53
2018-05-31T03:45:02.189Z,11.17
2018-05-31T03:50:05.463Z,12.57
2018-05-31T03:55:08.723Z,7.73
2018-05-31T04:00:11.982Z,7.10
2018-05-31T04:05:15.995Z,7.47
2018-05-31T04:10:19.260Z,9.87
2018-05-31T04:15:22.521Z,11.20
2018-05-31T04:20:26.763Z,11.70
2018-05-31T04:25:30.024Z,10.87
2018-05-31T04:30:34.119Z,12.00
2018-05-31T04:35:37.376Z,9.50
2018-05-31T04:40:40.624Z,7.43
2018-05-31T04:45:43.879Z,6.67
2018-05-31T04:50:47.131Z,6.67
2018-05-31T04:55:51.161Z,10.97
2018-05-31T05:00:54.449Z,10.93
2018-05-31T05:05:57.694Z,6.70
2018-05-31T05:11:00.953Z,8.37
2018-05-31T05:16:04.292Z,10.90
2018-05-31T05:21:07.553Z,8.90
2018-05-31T05:26:10.800Z,10.23
2018-05-31T05:31:14.822Z,8.60
2018-05-31T05:36:18.852Z,6.00
2018-05-31T05:41:22.101Z,5.60
2018-05-31T05:46:25.381Z,5.43
2018-05-31T05:51:28.628Z,5.13
2018-05-31T05:56:31.944Z,5.13
2018-05-31T06:01:35.147Z,5.63
2018-05-31T06:06:38.414Z,5.27
2018-05-31T06:11:41.668Z,7.60
2018-05-31T06:16:45.189Z,6.00
2018-05-31T06:21:48.435Z,7.10
2018-05-31T06:26:51.707Z,5.57
2018-05-31T06:31:54.950Z,4.73
2018-05-31T06:36:58.203Z,6.30
2018-05-31T06:42:01.459Z,6.60
2018-05-31T06:47:04.715Z,8.57
2018-05-31T06:52:07.966Z,7.00
2018-05-31T06:57:12.007Z,6.97
2018-05-31T07:02:16.027Z,4.63
2018-05-31T07:07:20.187Z,3.80
2018-05-31T07:12:23.506Z,4.07
2018-05-31T07:17:26.750Z,3.80
2018-05-31T07:22:30.004Z,3.30
2018-05-31T07:27:34.103Z,3.13
2018-05-31T07:32:37.347Z,3.97
2018-05-31T07:37:40.602Z,4.90
2018-05-31T07:42:43.851Z,3.87
2018-05-31T07:47:47.116Z,3.20
2018-05-31T07:52:50.384Z,4.20
2018-05-31T07:57:53.630Z,3.33
2018-05-31T08:02:56.901Z,3.37
2018-05-31T08:08:00.156Z,3.00
2018-05-31T08:13:03.444Z,2.90
2018-05-31T08:18:07.127Z,2.83
2018-05-31T08:23:10.391Z,2.57
2018-05-31T08:28:16.407Z,2.97
2018-05-31T08:33:19.663Z,2.93
2018-05-31T08:38:22.906Z,2.80
2018-05-31T08:43:26.170Z,3.37
2018-05-31T08:48:29.438Z,2.13
2018-05-31T08:53:32.682Z,2.50
2018-05-31T08:58:35.947Z,2.37
2018-05-31T09:03:39.207Z,2.67
2018-05-31T09:08:42.476Z,2.40
2018-05-31T09:13:45.711Z,2.20
2018-05-31T09:18:49.008Z,2.23
2018-05-31T09:23:53.024Z,2.20
2018-05-31T09:28:56.259Z,2.37
2018-05-31T09:33:59.495Z,2.33
2018-05-31T09:39:03.515Z,2.43
2018-05-31T09:44:08.788Z,2.67
2018-05-31T09:49:12.037Z,2.27
2018-05-31T09:54:15.277Z,2.60
2018-05-31T09:59:18.533Z,2.37
2018-05-31T10:04:22.539Z,2.80
2018-05-31T10:09:25.787Z,2.00
2018-05-31T10:14:29.036Z,2.47
2018-05-31T10:19:32.308Z,1.90
2018-05-31T10:24:35.550Z,2.73
2018-05-31T10:29:39.567Z,3.63
2018-05-31T10:34:42.818Z,4.73
2018-05-31T10:39:46.073Z,5.50
2018-05-31T10:44:49.310Z,4.47
2018-05-31T10:49:52.567Z,2.90
2018-05-31T10:54:56.568Z,4.30
2018-05-31T10:59:59.819Z,2.80
2018-05-31T11:05:03.062Z,4.33
2018-05-31T11:10:07.069Z,4.10
2018-05-31T11:15:10.319Z,4.97
2018-05-31T11:20:13.613Z,3.80
2018-05-31T11:25:16.859Z,4.03
2018-05-31T11:30:20.113Z,3.57
2018-05-31T11:35:24.127Z,2.97
2018-05-31T11:40:28.139Z,3.43
2018-05-31T11:45:31.672Z,3.10
2018-05-31T11:50:34.926Z,2.70
2018-05-31T11:55:38.175Z,2.80
2018-05-31T12:00:41.440Z,2.70
2018-05-31T12:05:48.069Z,5.07
2018-05-31T12:10:51.344Z,6.77
2018-05-31T12:15:54.545Z,4.27
2018-05-31T12:20:58.116Z,4.97
2018-05-31T12:26:02.140Z,3.37
2018-05-31T12:31:05.435Z,3.23
2018-05-31T12:36:08.688Z,3.30
2018-05-31T12:41:11.931Z,6.83
2018-05-31T12:46:15.182Z,7.10
2018-05-31T12:51:19.197Z,5.83
2018-05-31T12:56:22.461Z,6.23
2018-05-31T13:01:25.724Z,4.50
2018-05-31T13:06:28.999Z,4.37
2018-05-31T13:11:32.249Z,7.13
2018-05-31T13:16:35.527Z,3.50
2018-05-31T13:21:38.806Z,3.60
2018-05-31T13:26:42.063Z,5.23
2018-05-31T13:31:45.339Z,11.17
2018-05-31T13:36:49.242Z,4.87
2018-05-31T13:41:52.513Z,5.37
2018-05-31T13:46:56.542Z,11.43
2018-05-31T13:51:59.832Z,8.83
2018-05-31T13:57:03.850Z,8.40
2018-05-31T14:02:07.878Z,8.07
2018-05-31T14:07:11.903Z,4.07
2018-05-31T14:12:15.913Z,3.80
2018-05-31T14:17:19.166Z,4.70
2018-05-31T14:22:22.451Z,10.77
2018-05-31T14:27:25.719Z,8.77
2018-05-31T14:32:28.988Z,8.70
2018-05-31T14:37:32.267Z,4.17
2018-05-31T14:42:36.307Z,3.83
2018-05-31T14:47:39.575Z,4.23
2018-05-31T14:52:43.615Z,4.20
2018-05-31T14:57:46.867Z,3.90
2018-05-31T15:02:50.130Z,5.07
2018-05-31T15:07:54.184Z,4.90
2018-05-31T15:12:58.187Z,4.50
2018-05-31T15:18:01.442Z,4.50
2018-05-31T15:23:05.110Z,5.63
2018-05-31T15:28:08.382Z,3.90
2018-05-31T15:33:11.647Z,3.97
2018-05-31T15:38:14.904Z,3.73
2018-05-31T15:43:18.143Z,3.83
2018-05-31T15:48:21.401Z,4.27
2018-05-31T15:53:24.734Z,4.03
2018-05-31T15:58:27.911Z,3.93
2018-05-31T16:03:31.163Z,4.20
2018-05-31T16:08:34.463Z,4.47
2018-05-31T16:13:37.691Z,5.00
2018-05-31T16:18:40.938Z,4.40
2018-05-31T16:23:44.231Z,4.93
2018-05-31T16:28:48.310Z,5.03
2018-05-31T16:33:51.644Z,4.80
2018-05-31T16:38:54.902Z,5.47
2018-05-31T16:43:58.170Z,4.63
2018-05-31T16:49:01.459Z,5.27
2018-05-31T16:54:04.702Z,6.17
2018-05-31T16:59:07.981Z,6.57
2018-05-31T17:04:11.261Z,5.80
2018-05-31T17:09:14.527Z,7.57
2018-05-31T17:14:17.825Z,6.57
2018-05-31T17:19:21.085Z,8.10
2018-05-31T17:24:24.566Z,5.80
2018-05-31T17:29:27.835Z,6.83
2018-05-31T17:34:31.103Z,5.43
2018-05-31T17:39:34.362Z,5.50
2018-05-31T17:44:37.646Z,5.10
2018-05-31T17:49:40.931Z,4.80
2018-05-31T17:54:44.203Z,4.90
2018-05-31T17:59:48.218Z,5.03
2018-05-31T18:04:52.390Z,5.10
2018-05-31T18:09:56.553Z,4.67
2018-05-31T18:15:03.503Z,4.77
2018-05-31T18:20:06.751Z,5.43
2018-05-31T18:25:10.070Z,5.20
2018-05-31T18:30:13.335Z,4.70
2018-05-31T18:35:16.593Z,5.80
2018-05-31T18:40:19.856Z,5.40
2018-05-31T18:45:23.135Z,5.33
2018-05-31T18:50:26.396Z,7.10
2018-05-31T18:55:29.651Z,5.40
2018-05-31T19:00:32.902Z,5.40
2018-05-31T19:05:36.172Z,5.57
2018-05-31T19:10:39.432Z,6.63
2018-05-31T19:15:42.699Z,5.70
2018-05-31T19:20:45.950Z,6.80
2018-05-31T19:25:50.020Z,8.73
2018-05-31T19:30:58.979Z,10.17
2018-05-31T19:36:07.893Z,7.97
2018-05-31T19:41:11.171Z,8.57
2018-05-31T19:46:14.439Z,6.77
2018-05-31T19:51:23.389Z,7.10
2018-05-31T19:56:26.659Z,6.60
2018-05-31T20:01:35.587Z,6.77
2018-05-31T20:06:39.635Z,6.07
2018-05-31T20:11:42.947Z,6.70
2018-05-31T20:16:46.290Z,6.67
2018-05-31T20:21:50.017Z,9.60
2018-05-31T20:26:53.282Z,6.37
2018-05-31T20:31:56.544Z,7.20
2018-05-31T20:36:59.857Z,9.27
2018-05-31T20:42:03.301Z,7.60
2018-05-31T20:47:06.683Z,7.23
2018-05-31T20:52:09.971Z,8.90
2018-05-31T20:57:13.251Z,7.47
2018-05-31T21:02:16.498Z,7.33
2018-05-31T21:07:20.706Z,6.97
2018-05-31T21:12:23.951Z,6.97
2018-05-31T21:17:28.032Z,6.70
2018-05-31T21:22:31.345Z,7.70
2018-05-31T21:27:34.695Z,6.83
2018-05-31T21:32:37.942Z,7.23
2018-05-31T21:37:41.196Z,7.57
2018-05-31T21:42:44.483Z,6.43
2018-05-31T21:47:47.755Z,6.50
2018-05-31T21:52:51.874Z,6.67
2018-05-31T21:57:55.105Z,6.80
2018-05-31T22:02:58.378Z,6.23
2018-05-31T22:08:01.626Z,6.40
2018-05-31T22:13:04.872Z,5.77
2018-05-31T22:18:08.215Z,6.07
2018-05-31T22:23:12.443Z,6.63
2018-05-31T22:28:15.745Z,6.10
2018-05-31T22:33:18.994Z,5.73
2018-05-31T22:38:22.358Z,6.60
2018-05-31T22:43:25.639Z,6.13
2018-05-31T22:48:28.875Z,6.37
2018-05-31T22:53:32.127Z,6.20
2018-05-31T22:58:35.411Z,5.63
2018-05-31T23:03:39.446Z,6.80
2018-05-31T23:08:42.730Z,5.37
2018-05-31T23:13:45.984Z,6.07
2018-05-31T23:18:49.261Z,5.97
2018-05-31T23:23:53.286Z,6.40
2018-05-31T23:28:56.569Z,6.60
2018-05-31T23:34:00.586Z,5.83
2018-05-31T23:39:03.857Z,6.10
2018-05-31T23:44:07.135Z,6.67
2018-05-31T23:49:11.154Z,6.43
2018-05-31T23:54:14.419Z,5.67
2018-05-31T23:59:17.671Z,6.20
